createdAt,value
2018-07-02T00:00:38.036Z,18.97
2018-07-02T00:01:38.035Z,19.05
2018-07-02T00:02:38.037Z,18.99
2018-07-02T00:03:38.034Z,19.12
2018-07-02T00:04:38.029Z,19.01
2018-07-02T00:05:38.028Z,19.02
2018-07-02T00:06:38.027Z,19.02
2018-07-02T00:07:38.027Z,18.96
2018-07-02T00:08:38.027Z,18.97
2018-07-02T00:09:38.027Z,18.89
2018-07-02T00:10:38.028Z,18.93
2018-07-02T00:11:38.024Z,18.90
2018-07-02T00:12:38.022Z,18.89
2018-07-02T00:13:38.016Z,18.90
2018-07-02T00:14:38.015Z,18.89
2018-07-02T00:15:38.011Z,18.91
2018-07-02T00:16:38.014Z,18.93
2018-07-02T00:17:38.014Z,18.90
2018-07-02T00:18:38.008Z,18.87
2018-07-02T00:19:38.004Z,18.90
2018-07-02T00:20:38.007Z,18.93
2018-07-02T00:21:38.006Z,18.90
2018-07-02T00:22:38.008Z,18.90
2018-07-02T00:23:38.006Z,18.83
2018-07-02T00:24:37.996Z,18.91
2018-07-02T00:25:37.995Z,18.87
2018-07-02T00:26:37.992Z,18.86
2018-07-02T00:27:37.991Z,18.83
2018-07-02T00:28:37.994Z,18.79
2018-07-02T00:29:37.993Z,18.83
2018-07-02T00:30:37.993Z,18.82
2018-07-02T00:31:38.049Z,18.76
2018-07-02T00:32:37.981Z,18.78
2018-07-02T00:33:37.980Z,18.74
2018-07-02T00:34:37.982Z,18.78
2018-07-02T00:35:37.979Z,18.75
2018-07-02T00:36:37.974Z,18.84
2018-07-02T00:37:37.973Z,18.69
2018-07-02T00:38:37.971Z,18.71
2018-07-02T00:39:37.968Z,18.75
2018-07-02T00:40:37.971Z,18.82
2018-07-02T00:41:37.971Z,18.75
2018-07-02T00:42:38.003Z,18.74
2018-07-02T00:43:37.967Z,18.64
2018-07-02T00:44:37.961Z,18.65
2018-07-02T00:45:37.958Z,18.56
2018-07-02T00:46:37.956Z,18.51
2018-07-02T00:47:37.954Z,18.50
2018-07-02T00:48:37.957Z,18.44
2018-07-02T00:49:37.957Z,18.39
2018-07-02T00:50:37.949Z,18.41
2018-07-02T00:51:37.946Z,18.36
2018-07-02T00:52:37.948Z,18.34
2018-07-02T00:53:37.947Z,18.26
2018-07-02T00:54:37.945Z,18.32
2018-07-02T00:55:37.942Z,18.20
2018-07-02T00:56:37.936Z,18.13
2018-07-02T00:57:37.934Z,18.07
2018-07-02T00:58:37.933Z,17.98
2018-07-02T00:59:37.930Z,17.92
2018-07-02T01:00:37.934Z,17.79
2018-07-02T01:01:37.932Z,17.73
2018-07-02T01:02:37.928Z,17.73
2018-07-02T01:03:37.925Z,17.66
2018-07-02T01:04:37.920Z,17.60
2018-07-02T01:05:37.918Z,17.57
2018-07-02T01:06:37.920Z,17.58
2018-07-02T01:07:37.917Z,17.57
2018-07-02T01:08:37.911Z,17.54
2018-07-02T01:09:37.911Z,17.46
2018-07-02T01:10:37.907Z,17.42
2018-07-02T01:11:37.904Z,17.30
2018-07-02T01:12:37.907Z,17.24
2018-07-02T01:13:37.907Z,17.24
2018-07-02T01:14:37.903Z,17.14
2018-07-02T01:15:37.900Z,17.05
2018-07-02T01:16:37.895Z,17.09
2018-07-02T01:17:37.891Z,16.99
2018-07-02T01:18:37.889Z,16.96
2018-07-02T01:19:37.887Z,16.92
2018-07-02T01:20:37.890Z,16.85
2018-07-02T01:21:37.889Z,16.77
2018-07-02T01:22:37.881Z,16.84
2018-07-02T01:23:37.878Z,16.70
2018-07-02T01:24:37.880Z,16.67
2018-07-02T01:25:37.880Z,16.55
2018-07-02T01:26:37.874Z,16.59
2018-07-02T01:27:37.872Z,16.37
2018-07-02T01:28:37.866Z,16.36
2018-07-02T01:29:37.867Z,16.33
2018-07-02T01:30:37.860Z,16.32
2018-07-02T01:31:37.856Z,16.32
2018-07-02T01:32:37.863Z,16.26
2018-07-02T01:33:37.860Z,16.22
2018-07-02T01:34:37.854Z,16.17
2018-07-02T01:35:37.854Z,16.11
2018-07-02T01:36:37.844Z,16.06
2018-07-02T01:37:37.841Z,16.03
2018-07-02T01:38:37.842Z,16.04
2018-07-02T01:39:37.843Z,16.06
2018-07-02T01:40:37.832Z,16.01
2018-07-02T01:41:37.829Z,15.99
2018-07-02T01:42:37.828Z,15.91
2018-07-02T01:43:37.825Z,15.91
2018-07-02T01:44:37.827Z,15.85
2018-07-02T01:45:37.824Z,15.85
2018-07-02T01:46:37.821Z,15.76
2018-07-02T01:47:37.819Z,15.78
2018-07-02T01:48:37.810Z,15.73
2018-07-02T01:49:37.809Z,15.77
2018-07-02T01:50:37.806Z,15.74
2018-07-02T01:51:37.800Z,15.74
2018-07-02T01:52:37.805Z,15.70
2018-07-02T01:53:37.799Z,15.73
2018-07-02T01:54:37.795Z,15.52
2018-07-02T01:55:37.788Z,15.68
2018-07-02T01:56:37.791Z,15.66
2018-07-02T01:57:37.786Z,15.52
2018-07-02T01:58:37.785Z,15.53
2018-07-02T01:59:37.780Z,15.55
2018-07-02T02:00:37.775Z,15.51
2018-07-02T02:01:37.770Z,15.43
2018-07-02T02:02:37.769Z,15.48
2018-07-02T02:03:37.763Z,15.44
2018-07-02T02:04:37.765Z,15.34
2018-07-02T02:05:37.762Z,15.35
2018-07-02T02:06:37.762Z,15.49
2018-07-02T02:07:37.757Z,15.48
2018-07-02T02:08:37.748Z,15.44
2018-07-02T02:09:37.744Z,15.44
2018-07-02T02:10:37.748Z,15.31
2018-07-02T02:11:37.749Z,15.40
2018-07-02T02:12:37.736Z,15.31
2018-07-02T02:13:37.732Z,15.31
2018-07-02T02:14:37.729Z,15.23
2018-07-02T02:15:37.725Z,15.16
2018-07-02T02:16:37.729Z,15.12
2018-07-02T02:17:37.724Z,15.15
2018-07-02T02:18:37.719Z,15.16
2018-07-02T02:19:37.715Z,15.15
2018-07-02T02:20:37.710Z,15.13
2018-07-02T02:21:37.706Z,15.16
2018-07-02T02:22:37.703Z,15.13
2018-07-02T02:23:37.699Z,15.16
2018-07-02T02:24:37.702Z,15.20
2018-07-02T02:25:37.696Z,15.15
2018-07-02T02:26:37.688Z,15.20
2018-07-02T02:27:37.684Z,15.16
2018-07-02T02:28:37.688Z,15.20
2018-07-02T02:29:37.683Z,15.31
2018-07-02T02:30:37.679Z,15.34
2018-07-02T02:31:37.674Z,15.30
2018-07-02T02:32:37.666Z,15.28
2018-07-02T02:33:37.666Z,15.31
2018-07-02T02:34:37.663Z,15.28
2018-07-02T02:35:37.657Z,15.34
2018-07-02T02:36:37.658Z,15.34
2018-07-02T02:37:37.655Z,15.28
2018-07-02T02:38:37.651Z,15.34
2018-07-02T02:39:37.655Z,15.35
2018-07-02T02:40:37.651Z,15.30
2018-07-02T02:41:37.635Z,15.35
2018-07-02T02:42:37.637Z,15.33
2018-07-02T02:43:37.632Z,15.40
2018-07-02T02:44:37.625Z,15.33
2018-07-02T02:45:37.621Z,15.30
2018-07-02T02:46:37.620Z,15.34
2018-07-02T02:47:37.613Z,15.41
2018-07-02T02:48:37.613Z,15.34
2018-07-02T02:49:37.610Z,15.31
2018-07-02T02:50:37.607Z,15.34
2018-07-02T02:51:37.602Z,15.34
2018-07-02T02:52:37.595Z,15.35
2018-07-02T02:53:37.592Z,15.40
2018-07-02T02:54:37.591Z,15.35
2018-07-02T02:55:37.588Z,15.34
2018-07-02T02:56:37.586Z,15.34
2018-07-02T02:57:37.584Z,15.27
2018-07-02T02:58:37.573Z,15.31
2018-07-02T02:59:37.573Z,15.33
2018-07-02T03:00:37.573Z,15.28
2018-07-02T03:01:37.569Z,15.30
2018-07-02T03:02:37.563Z,15.34
2018-07-02T03:03:37.559Z,15.33
2018-07-02T03:04:37.551Z,15.28
2018-07-02T03:05:37.548Z,15.33
2018-07-02T03:06:37.544Z,15.33
2018-07-02T03:07:37.544Z,15.23
2018-07-02T03:08:37.541Z,15.22
2018-07-02T03:09:37.556Z,15.13
2018-07-02T03:10:37.534Z,15.19
2018-07-02T03:11:37.530Z,15.19
2018-07-02T03:12:37.528Z,15.22
2018-07-02T03:13:37.518Z,15.20
2018-07-02T03:14:37.519Z,15.18
2018-07-02T03:15:37.514Z,15.11
2018-07-02T03:16:37.507Z,15.13
2018-07-02T03:17:37.503Z,15.12
2018-07-02T03:18:37.501Z,15.12
2018-07-02T03:19:37.495Z,15.15
2018-07-02T03:20:37.497Z,15.18
2018-07-02T03:21:37.494Z,15.13
2018-07-02T03:22:37.491Z,15.03
2018-07-02T03:23:37.491Z,15.18
2018-07-02T03:24:37.478Z,15.04
2018-07-02T03:25:37.475Z,15.05
2018-07-02T03:26:37.470Z,15.03
2018-07-02T03:27:37.466Z,15.01
2018-07-02T03:28:37.466Z,15.05
2018-07-02T03:29:37.464Z,15.01
2018-07-02T03:30:37.455Z,14.97
2018-07-02T03:31:37.451Z,15.00
2018-07-02T03:32:37.450Z,15.00
2018-07-02T03:33:37.447Z,14.93
2018-07-02T03:34:37.445Z,14.95
2018-07-02T03:35:37.440Z,14.94
2018-07-02T03:36:37.432Z,14.94
2018-07-02T03:37:37.429Z,14.94
2018-07-02T03:38:37.425Z,14.98
2018-07-02T03:39:37.420Z,14.94
2018-07-02T03:40:37.422Z,14.93
2018-07-02T03:41:37.418Z,15.01
2018-07-02T03:42:37.413Z,14.98
2018-07-02T03:43:37.409Z,14.97
2018-07-02T03:44:37.401Z,15.00
2018-07-02T03:45:37.397Z,14.97
2018-07-02T03:46:37.398Z,15.04
2018-07-02T03:47:37.393Z,15.00
2018-07-02T03:48:37.385Z,15.09
2018-07-02T03:49:37.382Z,15.09
2018-07-02T03:50:37.379Z,15.07
2018-07-02T03:51:37.374Z,15.01
2018-07-02T03:52:37.376Z,15.07
2018-07-02T03:53:37.373Z,15.05
2018-07-02T03:54:37.375Z,15.01
2018-07-02T03:55:37.363Z,15.00
2018-07-02T03:56:37.356Z,15.00
2018-07-02T03:57:37.351Z,15.01
2018-07-02T03:58:37.347Z,15.04
2018-07-02T03:59:37.345Z,14.97
2018-07-02T04:00:37.344Z,14.97
2018-07-02T04:01:37.340Z,14.97
2018-07-02T04:02:37.334Z,14.97
2018-07-02T04:03:37.328Z,15.05
2018-07-02T04:04:37.328Z,15.01
2018-07-02T04:05:37.326Z,15.09
2018-07-02T04:06:37.323Z,15.03
2018-07-02T04:07:37.318Z,15.18
2018-07-02T04:08:37.310Z,15.15
2018-07-02T04:09:37.305Z,15.03
2018-07-02T04:10:37.302Z,15.13
2018-07-02T04:11:37.298Z,15.13
2018-07-02T04:12:37.299Z,15.13
2018-07-02T04:13:37.295Z,15.20
2018-07-02T04:14:37.292Z,15.09
2018-07-02T04:15:37.288Z,15.16
2018-07-02T04:16:37.279Z,15.20
2018-07-02T04:17:37.275Z,15.20
2018-07-02T04:18:37.277Z,15.18
2018-07-02T04:19:37.272Z,15.18
2018-07-02T04:20:37.264Z,15.18
2018-07-02T04:21:37.261Z,15.27
2018-07-02T04:22:37.257Z,15.30
2018-07-02T04:23:37.252Z,15.35
2018-07-02T04:24:37.253Z,15.33
2018-07-02T04:25:37.249Z,15.35
2018-07-02T04:26:37.246Z,15.38
2018-07-02T04:27:37.242Z,15.40
2018-07-02T04:28:37.235Z,15.44
2018-07-02T04:29:37.230Z,15.51
2018-07-02T04:30:37.228Z,15.46
2018-07-02T04:31:37.223Z,15.55
2018-07-02T04:32:37.245Z,15.48
2018-07-02T04:33:37.222Z,15.55
2018-07-02T04:34:37.212Z,15.55
2018-07-02T04:35:37.208Z,15.73
2018-07-02T04:36:37.211Z,15.74
2018-07-02T04:37:37.207Z,15.71
2018-07-02T04:38:37.202Z,15.71
2018-07-02T04:39:37.200Z,15.76
2018-07-02T04:40:37.190Z,15.68
2018-07-02T04:41:37.187Z,15.74
2018-07-02T04:42:37.182Z,15.74
2018-07-02T04:43:37.177Z,15.76
2018-07-02T04:44:37.181Z,15.84
2018-07-02T04:45:37.176Z,15.80
2018-07-02T04:46:37.174Z,15.84
2018-07-02T04:47:37.170Z,15.76
2018-07-02T04:48:37.161Z,15.84
2018-07-02T04:49:37.158Z,15.78
2018-07-02T04:50:37.160Z,15.95
2018-07-02T04:51:37.160Z,15.99
2018-07-02T04:52:37.147Z,16.06
2018-07-02T04:53:37.149Z,15.96
2018-07-02T04:54:37.141Z,16.07
2018-07-02T04:55:37.136Z,16.10
2018-07-02T04:56:37.137Z,16.22
2018-07-02T04:57:37.134Z,16.16
2018-07-02T04:58:37.131Z,16.26
2018-07-02T04:59:37.170Z,16.37
2018-07-02T05:00:37.119Z,16.52
2018-07-02T05:01:37.116Z,16.63
2018-07-02T05:02:37.113Z,16.82
2018-07-02T05:03:37.109Z,17.05
2018-07-02T05:04:37.112Z,17.22
2018-07-02T05:05:37.108Z,17.54
2018-07-02T05:06:37.102Z,17.76
2018-07-02T05:07:37.150Z,17.92
2018-07-02T05:08:37.103Z,18.13
2018-07-02T05:09:37.103Z,18.34
2018-07-02T05:10:37.097Z,18.59
2018-07-02T05:11:37.095Z,18.78
2018-07-02T05:12:37.090Z,18.99
2018-07-02T05:13:37.090Z,19.27
2018-07-02T05:14:37.095Z,19.53
2018-07-02T05:15:37.093Z,19.85
2018-07-02T05:16:37.090Z,20.26
2018-07-02T05:17:37.090Z,20.61
2018-07-02T05:18:37.090Z,21.05
2018-07-02T05:19:37.090Z,21.26
2018-07-02T05:20:37.097Z,21.67
2018-07-02T05:21:37.098Z,22.14
2018-07-02T05:22:37.095Z,22.54
2018-07-02T05:23:37.096Z,22.99
2018-07-02T05:24:37.104Z,23.41
2018-07-02T05:25:37.106Z,23.84
2018-07-02T05:26:37.110Z,24.14
2018-07-02T05:27:37.114Z,24.56
2018-07-02T05:28:37.110Z,24.87
2018-07-02T05:29:37.113Z,25.26
2018-07-02T05:30:37.116Z,25.63
2018-07-02T05:31:37.120Z,26.03
2018-07-02T05:32:37.127Z,26.06
2018-07-02T05:33:37.132Z,26.09
2018-07-02T05:34:37.254Z,25.75
2018-07-02T05:35:37.140Z,26.00
2018-07-02T05:36:37.139Z,26.41
2018-07-02T05:37:37.144Z,26.34
2018-07-02T05:38:37.152Z,26.65
2018-07-02T05:39:37.157Z,26.93
2018-07-02T05:40:37.156Z,27.39
2018-07-02T05:41:37.162Z,27.43
2018-07-02T05:42:37.168Z,27.61
2018-07-02T05:43:37.172Z,27.48
2018-07-02T05:44:37.184Z,27.63
2018-07-02T05:45:37.189Z,27.34
2018-07-02T05:46:37.195Z,27.63
2018-07-02T05:47:37.199Z,28.17
2018-07-02T05:48:37.224Z,28.21
2018-07-02T05:49:37.206Z,28.27
2018-07-02T05:50:37.212Z,28.62
2018-07-02T05:51:37.337Z,28.70
2018-07-02T05:52:37.230Z,29.03
2018-07-02T05:53:37.235Z,29.44
2018-07-02T05:54:37.236Z,29.47
2018-07-02T05:55:37.242Z,29.60
2018-07-02T05:56:37.253Z,28.80
2018-07-02T05:57:37.261Z,29.48
2018-07-02T05:58:37.267Z,29.74
2018-07-02T05:59:37.275Z,29.85
2018-07-02T06:00:37.370Z,29.91
2018-07-02T06:01:37.284Z,30.34
2018-07-02T06:02:37.292Z,30.68
2018-07-02T06:03:37.298Z,30.22
2018-07-02T06:04:37.310Z,30.36
2018-07-02T06:05:37.319Z,30.90
2018-07-02T06:06:37.325Z,30.85
2018-07-02T06:07:37.333Z,31.22
2018-07-02T06:08:37.336Z,31.30
2018-07-02T06:09:37.345Z,31.78
2018-07-02T06:10:37.356Z,32.14
2018-07-02T06:11:37.366Z,32.43
2018-07-02T06:12:37.368Z,32.83
2018-07-02T06:13:37.377Z,32.85
2018-07-02T06:14:37.386Z,32.41
2018-07-02T06:15:37.394Z,32.24
2018-07-02T06:16:37.462Z,32.36
2018-07-02T06:17:37.417Z,32.44
2018-07-02T06:18:37.426Z,32.88
2018-07-02T06:19:37.434Z,33.05
2018-07-02T06:20:37.439Z,32.73
2018-07-02T06:21:37.454Z,33.00
2018-07-02T06:22:37.460Z,33.11
2018-07-02T06:23:37.468Z,33.00
2018-07-02T06:24:37.483Z,33.37
2018-07-02T06:25:37.494Z,33.70
2018-07-02T06:26:37.498Z,33.59
2018-07-02T06:27:37.508Z,33.77
2018-07-02T06:28:37.523Z,33.99
2018-07-02T06:29:37.534Z,33.59
2018-07-02T06:30:37.543Z,32.99
2018-07-02T06:31:37.552Z,33.07
2018-07-02T06:32:37.558Z,32.90
2018-07-02T06:33:37.569Z,32.77
2018-07-02T06:34:37.580Z,32.19
2018-07-02T06:35:37.590Z,31.72
2018-07-02T06:36:37.605Z,32.10
2018-07-02T06:37:37.616Z,32.87
2018-07-02T06:38:37.628Z,33.24
2018-07-02T06:39:37.637Z,33.72
2018-07-02T06:40:37.643Z,33.24
2018-07-02T06:41:37.655Z,32.96
2018-07-02T06:42:37.672Z,33.57
2018-07-02T06:43:37.682Z,32.77
2018-07-02T06:44:37.688Z,33.06
2018-07-02T06:45:37.699Z,31.82
2018-07-02T06:46:37.710Z,31.94
2018-07-02T06:47:37.723Z,31.49
2018-07-02T06:48:37.738Z,31.99
2018-07-02T06:49:37.748Z,31.91
2018-07-02T06:50:37.759Z,32.53
2018-07-02T06:51:37.770Z,32.81
2018-07-02T06:52:37.777Z,33.15
2018-07-02T06:53:37.790Z,33.63
2018-07-02T06:54:37.802Z,32.93
2018-07-02T06:55:37.811Z,33.28
2018-07-02T06:56:37.828Z,33.65
2018-07-02T06:57:37.840Z,34.24
2018-07-02T06:58:37.869Z,34.84
2018-07-02T06:59:37.858Z,35.13
2018-07-02T07:00:37.875Z,35.31
2018-07-02T07:01:37.890Z,35.55
2018-07-02T07:02:37.902Z,35.99
2018-07-02T07:03:37.915Z,36.28
2018-07-02T07:04:37.919Z,36.44
2018-07-02T07:05:37.933Z,36.53
2018-07-02T07:06:37.946Z,36.40
2018-07-02T07:07:37.957Z,36.59
2018-07-02T07:08:38.028Z,36.06
2018-07-02T07:09:37.987Z,36.11
2018-07-02T07:10:38.005Z,35.83
2018-07-02T07:11:38.014Z,35.74
2018-07-02T07:12:38.024Z,35.29
2018-07-02T07:13:38.036Z,35.81
2018-07-02T07:14:38.053Z,35.42
2018-07-02T07:15:38.092Z,35.43
2018-07-02T07:16:38.075Z,35.76
2018-07-02T07:17:38.089Z,35.83
2018-07-02T07:18:38.104Z,35.17
2018-07-02T07:19:38.119Z,34.99
2018-07-02T07:20:38.133Z,33.72
2018-07-02T07:21:38.146Z,33.74
2018-07-02T07:22:38.162Z,34.34
2018-07-02T07:23:38.174Z,35.05
2018-07-02T07:24:38.183Z,35.73
2018-07-02T07:25:38.197Z,35.95
2018-07-02T07:26:38.210Z,36.00
2018-07-02T07:27:38.237Z,35.17
2018-07-02T07:28:38.241Z,35.00
2018-07-02T07:29:38.256Z,34.09
2018-07-02T07:30:38.265Z,33.53
2018-07-02T07:31:38.278Z,34.06
2018-07-02T07:32:38.297Z,34.26
2018-07-02T07:33:38.310Z,34.21
2018-07-02T07:34:38.326Z,33.90
2018-07-02T07:35:38.338Z,34.01
2018-07-02T07:36:38.352Z,34.73
2018-07-02T07:37:38.362Z,35.07
2018-07-02T07:38:38.376Z,35.76
2018-07-02T07:39:38.390Z,35.58
2018-07-02T07:40:38.409Z,34.93
2018-07-02T07:41:38.424Z,35.76
2018-07-02T07:42:38.437Z,36.23
2018-07-02T07:43:38.450Z,36.83
2018-07-02T07:44:38.460Z,36.74
2018-07-02T07:45:38.474Z,35.39
2018-07-02T07:46:38.494Z,33.82
2018-07-02T07:47:38.507Z,33.79
2018-07-02T07:48:38.517Z,33.71
2018-07-02T07:49:38.534Z,33.72
2018-07-02T07:50:38.547Z,33.97
2018-07-02T07:51:38.560Z,34.50
2018-07-02T07:52:38.580Z,34.78
2018-07-02T07:53:38.596Z,35.02
2018-07-02T07:54:38.609Z,35.15
2018-07-02T07:55:38.624Z,34.55
2018-07-02T07:56:38.637Z,35.25
2018-07-02T07:57:38.648Z,34.53
2018-07-02T07:58:38.661Z,34.71
2018-07-02T07:59:38.677Z,33.79
2018-07-02T08:00:38.694Z,34.37
2018-07-02T08:01:38.709Z,34.94
2018-07-02T08:02:38.719Z,35.68
2018-07-02T08:03:38.744Z,36.22
2018-07-02T08:04:38.754Z,36.68
2018-07-02T08:05:38.768Z,36.87
2018-07-02T08:06:38.785Z,36.57
2018-07-02T08:07:38.800Z,36.35
2018-07-02T08:08:38.815Z,35.56
2018-07-02T08:09:38.824Z,36.16
2018-07-02T08:10:38.839Z,35.73
2018-07-02T08:11:38.854Z,35.15
2018-07-02T08:12:38.875Z,35.32
2018-07-02T08:13:38.890Z,35.68
2018-07-02T08:14:38.904Z,36.46
2018-07-02T08:15:38.919Z,36.90
2018-07-02T08:16:38.931Z,37.35
2018-07-02T08:17:38.947Z,37.88
2018-07-02T08:18:38.966Z,38.40
2018-07-02T08:19:38.981Z,38.56
2018-07-02T08:20:38.992Z,38.75
2018-07-02T08:21:39.009Z,38.68
2018-07-02T08:22:39.025Z,39.25
2018-07-02T08:23:39.041Z,38.89
2018-07-02T08:24:39.062Z,39.02
2018-07-02T08:25:39.079Z,39.05
2018-07-02T08:26:39.099Z,39.02
2018-07-02T08:27:39.113Z,39.32
2018-07-02T08:28:39.122Z,38.97
2018-07-02T08:29:39.139Z,37.50
2018-07-02T08:30:39.157Z,36.28
2018-07-02T08:31:39.172Z,36.18
2018-07-02T08:32:39.194Z,37.05
2018-07-02T08:33:39.212Z,37.13
2018-07-02T08:34:39.224Z,36.44
2018-07-02T08:35:39.240Z,35.02
2018-07-02T08:36:39.263Z,34.72
2018-07-02T08:37:39.278Z,35.37
2018-07-02T08:38:39.295Z,34.86
2018-07-02T08:39:39.310Z,35.89
2018-07-02T08:40:39.323Z,35.66
2018-07-02T08:41:39.340Z,36.13
2018-07-02T08:42:39.358Z,37.08
2018-07-02T08:43:39.372Z,37.34
2018-07-02T08:44:39.393Z,38.18
2018-07-02T08:45:39.410Z,37.99
2018-07-02T08:46:39.479Z,38.00
2018-07-02T08:47:39.444Z,37.95
2018-07-02T08:48:39.457Z,36.99
2018-07-02T08:49:39.473Z,36.72
2018-07-02T08:50:39.496Z,36.30
2018-07-02T08:51:39.514Z,36.08
2018-07-02T08:52:39.579Z,35.43
2018-07-02T08:53:39.542Z,35.49
2018-07-02T08:54:39.561Z,35.49
2018-07-02T08:55:39.577Z,36.30
2018-07-02T08:56:39.597Z,37.09
2018-07-02T08:57:39.614Z,36.62
2018-07-02T08:58:39.631Z,36.15
2018-07-02T08:59:39.648Z,36.50
2018-07-02T09:00:39.661Z,36.28
2018-07-02T09:01:39.678Z,35.78
2018-07-02T09:02:39.696Z,35.17
2018-07-02T09:03:39.712Z,35.12
2018-07-02T09:04:39.734Z,35.17
2018-07-02T09:05:39.753Z,34.64
2018-07-02T09:06:39.765Z,35.24
2018-07-02T09:07:39.781Z,36.05
2018-07-02T09:08:39.804Z,36.16
2018-07-02T09:09:39.821Z,35.89
2018-07-02T09:10:39.839Z,35.55
2018-07-02T09:11:39.856Z,34.67
2018-07-02T09:12:39.868Z,35.27
2018-07-02T09:13:39.884Z,34.28
2018-07-02T09:14:39.964Z,34.00
2018-07-02T09:15:39.919Z,34.81
2018-07-02T09:16:39.941Z,35.52
2018-07-02T09:17:39.959Z,35.87
2018-07-02T09:18:39.975Z,36.00
2018-07-02T09:19:39.992Z,35.46
2018-07-02T09:20:40.064Z,35.32
2018-07-02T09:21:40.023Z,35.81
2018-07-02T09:22:40.045Z,35.56
2018-07-02T09:23:40.062Z,36.11
2018-07-02T09:24:40.073Z,36.50
2018-07-02T09:25:40.092Z,37.31
2018-07-02T09:26:40.109Z,37.77
2018-07-02T09:27:40.123Z,38.28
2018-07-02T09:28:40.151Z,38.93
2018-07-02T09:29:40.163Z,39.22
2018-07-02T09:30:40.182Z,39.62
2018-07-02T09:31:40.199Z,39.97
2018-07-02T09:32:40.220Z,39.66
2018-07-02T09:33:40.237Z,37.78
2018-07-02T09:34:40.250Z,37.39
2018-07-02T09:35:40.268Z,37.06
2018-07-02T09:36:40.294Z,36.71
2018-07-02T09:37:40.315Z,37.13
2018-07-02T09:38:40.324Z,37.11
2018-07-02T09:39:40.341Z,37.21
2018-07-02T09:40:40.365Z,36.33
2018-07-02T09:41:40.386Z,34.49
2018-07-02T09:42:40.400Z,34.33
2018-07-02T09:43:40.418Z,35.07
2018-07-02T09:44:40.433Z,35.31
2018-07-02T09:45:40.451Z,35.62
2018-07-02T09:46:40.469Z,36.49
2018-07-02T09:47:40.486Z,37.16
2018-07-02T09:48:40.508Z,37.15
2018-07-02T09:49:40.527Z,37.66
2018-07-02T09:50:40.545Z,37.24
2018-07-02T09:51:40.563Z,36.87
2018-07-02T09:52:40.576Z,37.27
2018-07-02T09:53:40.595Z,37.77
2018-07-02T09:54:40.618Z,38.52
2018-07-02T09:55:40.635Z,38.31
2018-07-02T09:56:40.649Z,38.78
2018-07-02T09:57:40.667Z,38.36
2018-07-02T09:58:40.686Z,37.60
2018-07-02T09:59:40.703Z,35.92
2018-07-02T10:00:40.740Z,35.31
2018-07-02T10:01:40.749Z,35.54
2018-07-02T10:02:40.764Z,35.65
2018-07-02T10:03:40.781Z,35.46
2018-07-02T10:04:40.795Z,35.25
2018-07-02T10:05:40.813Z,35.32
2018-07-02T10:06:40.851Z,36.12
2018-07-02T10:07:40.849Z,36.93
2018-07-02T10:08:40.872Z,36.31
2018-07-02T10:09:40.892Z,36.21
2018-07-02T10:10:40.904Z,36.11
2018-07-02T10:11:40.927Z,36.64
2018-07-02T10:12:41.005Z,36.27
2018-07-02T10:13:40.962Z,36.49
2018-07-02T10:14:40.980Z,36.62
2018-07-02T10:15:40.997Z,36.44
2018-07-02T10:16:41.014Z,36.11
2018-07-02T10:17:41.030Z,35.28
2018-07-02T10:18:41.051Z,35.03
2018-07-02T10:19:41.065Z,35.43
2018-07-02T10:20:41.088Z,35.71
2018-07-02T10:21:41.105Z,36.27
2018-07-02T10:22:41.127Z,36.67
2018-07-02T10:23:41.153Z,37.25
2018-07-02T10:24:41.156Z,37.68
2018-07-02T10:25:41.173Z,37.04
2018-07-02T10:26:41.196Z,36.62
2018-07-02T10:27:41.213Z,36.48
2018-07-02T10:28:41.226Z,35.87
2018-07-02T10:29:41.255Z,35.58
2018-07-02T10:30:41.307Z,35.91
2018-07-02T10:31:41.281Z,35.91
2018-07-02T10:32:41.303Z,36.65
2018-07-02T10:33:41.321Z,37.31
2018-07-02T10:34:41.370Z,37.82
2018-07-02T10:35:41.357Z,37.59
2018-07-02T10:36:41.370Z,37.25
2018-07-02T10:37:41.387Z,36.89
2018-07-02T10:38:41.407Z,36.38
2018-07-02T10:39:41.425Z,35.81
2018-07-02T10:40:41.447Z,35.93
2018-07-02T10:41:41.471Z,36.13
2018-07-02T10:42:41.479Z,36.72
2018-07-02T10:43:41.496Z,37.27
2018-07-02T10:44:41.520Z,37.87
2018-07-02T10:45:41.538Z,38.40
2018-07-02T10:46:41.556Z,38.59
2018-07-02T10:47:41.574Z,38.62
2018-07-02T10:48:41.590Z,38.44
2018-07-02T10:49:41.607Z,37.30
2018-07-02T10:50:41.625Z,36.44
2018-07-02T10:51:41.642Z,35.95
2018-07-02T10:52:41.665Z,34.75
2018-07-02T10:53:41.684Z,34.23
2018-07-02T10:54:41.702Z,33.93
2018-07-02T10:55:41.779Z,33.75
2018-07-02T10:56:41.733Z,33.72
2018-07-02T10:57:41.751Z,34.38
2018-07-02T10:58:41.774Z,35.20
2018-07-02T10:59:41.808Z,35.83
2018-07-02T11:00:41.802Z,36.74
2018-07-02T11:01:41.820Z,36.87
2018-07-02T11:02:41.838Z,36.49
2018-07-02T11:03:41.854Z,37.02
2018-07-02T11:04:41.878Z,37.30
2018-07-02T11:05:41.894Z,37.24
2018-07-02T11:06:41.912Z,37.16
2018-07-02T11:07:41.935Z,37.12
2018-07-02T11:08:41.941Z,36.49
2018-07-02T11:09:41.959Z,36.64
2018-07-02T11:10:41.976Z,36.59
2018-07-02T11:11:41.993Z,35.99
2018-07-02T11:12:42.017Z,36.48
2018-07-02T11:13:42.034Z,36.86
2018-07-02T11:14:42.045Z,36.93
2018-07-02T11:15:42.063Z,36.23
2018-07-02T11:16:42.084Z,35.91
2018-07-02T11:17:42.102Z,36.30
2018-07-02T11:18:42.120Z,35.87
2018-07-02T11:19:42.138Z,35.64
2018-07-02T11:20:42.151Z,34.90
2018-07-02T11:21:42.167Z,34.48
2018-07-02T11:22:42.185Z,33.49
2018-07-02T11:23:42.222Z,33.07
2018-07-02T11:24:42.232Z,33.03
2018-07-02T11:25:42.238Z,33.15
2018-07-02T11:26:42.255Z,33.22
2018-07-02T11:27:42.269Z,33.12
2018-07-02T11:28:42.284Z,32.69
2018-07-02T11:29:42.295Z,32.51
2018-07-02T11:30:42.315Z,32.28
2018-07-02T11:31:42.329Z,32.36
2018-07-02T11:32:42.337Z,32.29
2018-07-02T11:33:42.351Z,32.25
2018-07-02T11:34:42.383Z,31.85
2018-07-02T11:35:42.376Z,31.68
2018-07-02T11:36:42.396Z,31.67
2018-07-02T11:37:42.408Z,31.68
2018-07-02T11:38:42.417Z,31.76
2018-07-02T11:39:42.429Z,31.59
2018-07-02T11:40:42.438Z,31.37
2018-07-02T11:41:42.446Z,31.16
2018-07-02T11:42:42.457Z,31.04
2018-07-02T11:43:42.467Z,30.91
2018-07-02T11:44:42.484Z,30.72
2018-07-02T11:45:42.495Z,30.42
2018-07-02T11:46:42.496Z,29.84
2018-07-02T11:47:42.504Z,29.58
2018-07-02T11:48:42.517Z,29.55
2018-07-02T11:49:42.570Z,29.49
2018-07-02T11:50:42.537Z,29.47
2018-07-02T11:51:42.543Z,29.51
2018-07-02T11:52:42.547Z,29.25
2018-07-02T11:53:42.555Z,29.36
2018-07-02T11:54:42.564Z,29.11
2018-07-02T11:55:42.569Z,29.07
2018-07-02T11:56:42.581Z,28.97
2018-07-02T11:57:42.589Z,29.05
2018-07-02T11:58:42.597Z,29.03
2018-07-02T11:59:42.605Z,29.08
2018-07-02T12:00:42.604Z,29.21
2018-07-02T12:01:42.611Z,29.37
2018-07-02T12:02:42.624Z,29.48
2018-07-02T12:03:42.628Z,29.32
2018-07-02T12:04:42.630Z,29.27
2018-07-02T12:05:42.640Z,29.33
2018-07-02T12:06:42.646Z,29.48
2018-07-02T12:07:42.650Z,29.63
2018-07-02T12:08:42.659Z,29.64
2018-07-02T12:09:42.666Z,29.67
2018-07-02T12:10:42.672Z,29.58
2018-07-02T12:11:42.679Z,29.49
2018-07-02T12:12:42.688Z,28.77
2018-07-02T12:13:42.685Z,28.73
2018-07-02T12:14:42.694Z,28.76
2018-07-02T12:15:42.696Z,28.89
2018-07-02T12:16:42.708Z,29.02
2018-07-02T12:17:42.713Z,28.97
2018-07-02T12:18:42.713Z,29.00
2018-07-02T12:19:42.718Z,28.76
2018-07-02T12:20:42.729Z,28.74
2018-07-02T12:21:42.737Z,28.85
2018-07-02T12:22:42.740Z,29.07
2018-07-02T12:23:42.745Z,29.15
2018-07-02T12:24:42.746Z,29.26
2018-07-02T12:25:42.751Z,29.32
2018-07-02T12:26:42.757Z,29.35
2018-07-02T12:27:42.762Z,29.44
2018-07-02T12:28:42.772Z,29.29
2018-07-02T12:29:42.777Z,29.37
2018-07-02T12:30:42.783Z,29.49
2018-07-02T12:31:42.789Z,29.55
2018-07-02T12:32:42.789Z,29.57
2018-07-02T12:33:42.796Z,29.73
2018-07-02T12:34:42.804Z,29.84
2018-07-02T12:35:42.809Z,30.01
2018-07-02T12:36:42.810Z,30.03
2018-07-02T12:37:42.819Z,30.01
2018-07-02T12:38:42.820Z,30.01
2018-07-02T12:39:42.825Z,30.07
2018-07-02T12:40:42.834Z,30.07
2018-07-02T12:41:42.839Z,30.11
2018-07-02T12:42:42.846Z,30.19
2018-07-02T12:43:42.850Z,30.23
2018-07-02T12:44:42.852Z,30.16
2018-07-02T12:45:42.857Z,29.91
2018-07-02T12:46:42.871Z,29.49
2018-07-02T12:47:42.867Z,29.30
2018-07-02T12:48:42.876Z,29.10
2018-07-02T12:49:42.882Z,29.05
2018-07-02T12:50:42.885Z,29.08
2018-07-02T12:51:42.887Z,29.11
2018-07-02T12:52:42.899Z,28.88